Lost Cabin, Wyoming
Current Conditions -  °F | °C
As of 4:15 AM on Sunday 21 Dec 2014 (Local Time) from KTBX Reporting Station
Overcast Overcast  
Wind Chill: 21°   Ceiling: 11000
Heat Index: 30°   Visibility: NA
Dew Point: 18°   Wind: 10mph
Humidity: 60%   Direction: 140°SE
Pressure: 29.71"   Gusts: 16mph
Location:  43.3284°N, 107.663°W
Report Text: KTBX 211115Z AUTO 14009G14KT OVC110 M01/M08 A2971 RMK AO2 PWINO
Loading
Personal Weather Stations






























Interactive Weather Map New forecast layout! Learn more

10-Day Weather Forecast

Advertisements
Track Severe Weather on mobile